Argyle, Missouri
Current Conditions -  °F | °C
As of 9:04 PM on Thursday 18 Dec 2014 (Local Time) from KVIH Reporting Station
Moderate Fog Moderate Fog  
Wind Chill: 28°   Ceiling: 200
Heat Index: 33°   Visibility: 0.5mi
Dew Point: 32°   Wind: 6mph
Humidity: 96%   Direction: 90°E
Pressure: 30.22"   Gusts: NA
Location:  38.29°N, 92.03°W
Report Text: KVIH 190304Z AUTO 09005KT 1/2SM FG VV002 01/00 A3022 RMK AO2 T00060000
Loading
Personal Weather Stations






























Interactive Weather Map New forecast layout! Learn more

10-Day Weather Forecast

Advertisements
Track Severe Weather on mobile